Time;durP1;ratioP1;P1;durP2;ratioP2;P2;SDS_P1;SDS_P2;PMS_P1;PMS_P2;Temp;Humidity;BMP_temperature;BMP_pressure;BME280_temperature;BME280_humidity;BME280_pressure;Samples;Min_cycle;Max_cycle;Signal;HPM_P1;HPM_P2
2023/06/29 00:01:29;;;;;;;;;;;18.00;45.20;;;13.98;85.72;95554.53;4952723;29;19916;-50
2023/06/29 00:03:54;;;;;;;;;;;18.00;45.40;;;13.95;84.99;95557.78;4952187;29;19914;-48
2023/06/29 00:06:20;;;;;;;;;;;17.90;45.50;;;13.91;85.72;95551.38;4933059;29;19992;-47
2023/06/29 00:08:48;;;;;;;;;;;17.90;45.60;;;13.89;85.29;95549.00;4949374;29;19914;-47
2023/06/29 00:11:14;;;;;;;;;;;17.90;45.80;;;13.82;85.83;95546.66;4941088;29;19934;-46
2023/06/29 00:13:39;;;;;;;;;;;17.90;45.90;;;13.83;86.28;95547.47;4954988;28;20013;-48
2023/06/29 00:16:05;;;;;;;;;;;17.80;46.00;;;13.98;85.83;95541.13;4956728;28;20448;-45
2023/06/29 00:18:32;;;;;;;;;;;17.90;46.20;;;13.97;85.77;95536.84;4950629;28;20001;-45
2023/06/29 00:21:00;;;;;;;;;;;17.90;46.20;;;13.96;85.56;95536.06;4956363;28;19937;-44
2023/06/29 00:23:26;;;;;;;;;;;17.90;46.30;;;13.96;85.77;95530.69;4947116;28;20313;-46
2023/06/29 00:25:56;;;;;;;;;;;17.80;46.30;;;14.01;85.98;95525.28;4956492;28;19917;-45
2023/06/29 00:28:21;;;;;;;;;;;17.90;46.50;;;14.07;85.30;95526.00;4953483;28;20373;-47
2023/06/29 00:30:48;;;;;;;;;;;17.80;46.50;;;14.09;84.97;95523.84;4946649;28;19910;-44
2023/06/29 00:33:13;;;;;;;;;;;17.90;46.60;;;14.08;84.34;95527.59;4956551;28;19922;-47
2023/06/29 00:35:39;;;;;;;;;;;17.90;46.60;;;14.02;84.04;95529.56;4951999;28;19914;-47
2023/06/29 00:38:05;;;;;;;;;;;17.90;46.70;;;13.95;85.32;95520.28;4956406;28;19957;-45
2023/06/29 00:40:30;;;;;;;;;;;17.80;46.70;;;13.88;86.39;95534.00;4952194;28;19969;-46
2023/06/29 00:42:56;;;;;;;;;;;17.80;46.70;;;13.81;86.86;95517.50;4952048;28;20008;-48
2023/06/29 00:45:22;;;;;;;;;;;17.80;46.80;;;13.71;88.28;95523.75;4956405;28;20428;-44
2023/06/29 00:47:48;;;;;;;;;;;17.80;46.90;;;13.63;89.49;95522.53;4934184;28;20366;-48
2023/06/29 00:50:14;;;;;;;;;;;17.70;46.90;;;13.58;89.66;95517.22;4956358;28;19914;-47
2023/06/29 00:52:40;;;;;;;;;;;17.60;47.00;;;13.50;90.13;95515.16;4935582;28;20293;-49
2023/06/29 00:55:07;;;;;;;;;;;17.60;47.10;;;13.52;89.47;95512.22;4955911;28;19918;-45
2023/06/29 00:57:33;;;;;;;;;;;17.50;47.20;;;13.49;89.29;95516.25;4956061;28;19964;-45
2023/06/29 01:00:00;;;;;;;;;;;17.50;47.40;;;13.48;89.19;95517.34;4948781;28;19910;-49
2023/06/29 01:02:30;;;;;;;;;;;17.50;47.50;;;13.46;90.20;95516.03;4955831;28;20319;-49
2023/06/29 01:04:57;;;;;;;;;;;17.40;47.60;;;13.38;90.88;95518.25;4948436;28;19910;-47
2023/06/29 01:07:36;;;;;;;;;;;17.40;47.70;;;13.33;91.04;95504.91;4952539;28;20344;-47
2023/06/29 01:10:04;;;;;;;;;;;17.40;47.80;;;13.34;90.45;95500.34;4941782;28;20419;-51
2023/06/29 01:12:31;;;;;;;;;;;17.30;47.80;;;13.28;91.42;95496.13;4941154;28;20005;-47
2023/06/29 01:14:59;;;;;;;;;;;17.30;47.90;;;13.23;92.11;95502.31;4939207;28;19913;-45
2023/06/29 01:17:31;;;;;;;;;;;17.30;48.10;;;13.24;91.70;95495.88;4927847;29;19915;-48
2023/06/29 01:20:00;;;;;;;;;;;17.30;48.80;;;13.26;91.20;95490.28;4952491;28;19957;-47
2023/06/29 01:22:41;;;;;;;;;;;17.20;48.20;;;13.28;91.03;95488.91;4938276;28;19977;-46
2023/06/29 01:25:08;;;;;;;;;;;17.20;49.00;;;13.24;90.97;95490.53;4938412;28;20293;-48
2023/06/29 01:27:34;;;;;;;;;;;17.20;48.40;;;13.20;90.39;95487.63;4926271;29;19936;-46
2023/06/29 01:30:01;;;;;;;;;;;17.20;48.50;;;13.17;90.19;95488.19;4933668;28;19998;-50
2023/06/29 01:32:33;;;;;;;;;;;17.10;48.50;;;13.11;91.07;95492.00;4936400;29;19946;-49
2023/06/29 01:35:00;;;;;;;;;;;17.10;48.60;;;13.05;92.41;95490.44;4935230;29;19910;-46
2023/06/29 01:37:49;;;;;;;;;;;17.10;48.70;;;13.06;92.63;95491.25;4915741;29;19949;-45
2023/06/29 01:40:20;;;;;;;;;;;17.10;48.80;;;13.09;92.58;95486.13;4936464;28;19918;-50
2023/06/29 01:42:49;;;;;;;;;;;17.10;48.90;;;13.10;91.89;95481.56;4945547;28;20297;-46
2023/06/29 01:45:20;;;;;;;;;;;17.00;48.90;;;13.08;91.75;95476.50;4936104;29;19910;-47
2023/06/29 01:47:46;;;;;;;;;;;17.00;49.10;;;13.05;92.95;95481.63;4935557;29;20013;-49
2023/06/29 01:50:14;;;;;;;;;;;17.00;49.10;;;13.00;93.97;95479.00;4936213;29;19997;-52
2023/06/29 01:52:40;;;;;;;;;;;17.00;49.10;;;13.01;93.34;95483.28;4934808;29;19918;-51
2023/06/29 01:55:09;;;;;;;;;;;17.00;49.20;;;13.03;93.98;95473.09;4912450;29;19919;-49
2023/06/29 01:57:35;;;;;;;;;;;17.00;49.30;;;13.03;93.19;95481.91;4913483;29;19918;-50
2023/06/29 02:00:03;;;;;;;;;;;17.00;49.40;;;13.00;93.59;95479.00;4911480;29;20029;-50
2023/06/29 02:02:30;;;;;;;;;;;16.90;49.40;;;12.95;94.00;95480.66;4916563;29;19914;-52
2023/06/29 02:04:56;;;;;;;;;;;16.90;49.50;;;12.92;93.86;95475.88;4915855;29;19910;-47
2023/06/29 02:07:22;;;;;;;;;;;16.90;49.60;;;12.87;93.97;95470.56;4916519;29;20278;-46
2023/06/29 02:09:47;;;;;;;;;;;16.90;49.60;;;12.80;95.04;95480.00;4915469;29;19914;-47
2023/06/29 02:12:13;;;;;;;;;;;16.90;49.70;;;12.81;95.10;95476.22;4919156;29;19925;-45
2023/06/29 02:14:39;;;;;;;;;;;16.80;50.30;;;12.80;95.14;95488.81;4935903;29;19917;-45
2023/06/29 02:17:05;;;;;;;;;;;16.80;49.80;;;12.78;95.29;95488.28;4931415;29;19933;-45
2023/06/29 02:19:31;;;;;;;;;;;16.80;49.90;;;12.79;95.54;95481.06;4935636;29;19965;-45
2023/06/29 02:21:56;;;;;;;;;;;16.80;50.00;;;12.78;96.62;95482.94;4935752;29;19922;-45
2023/06/29 02:24:23;;;;;;;;;;;16.80;50.10;;;12.79;95.45;95479.19;4926699;29;19937;-45
2023/06/29 02:26:49;;;;;;;;;;;16.80;50.10;;;12.76;95.03;95484.31;4935156;28;19918;-46
2023/06/29 02:29:14;;;;;;;;;;;16.80;50.10;;;12.70;95.11;95489.69;4926328;29;19910;-45
2023/06/29 02:31:40;;;;;;;;;;;16.70;50.80;;;12.63;95.04;95478.53;4946381;28;19914;-45
2023/06/29 02:34:06;;;;;;;;;;;16.70;50.30;;;12.57;95.36;95484.19;4935212;29;20283;-47
2023/06/29 02:36:32;;;;;;;;;;;16.70;50.30;;;12.50;96.48;95479.13;4930491;28;19937;-45
2023/06/29 02:38:57;;;;;;;;;;;16.60;50.40;;;12.45;97.02;95474.66;4935254;29;19910;-46
2023/06/29 02:41:23;;;;;;;;;;;16.50;50.40;;;12.42;97.38;95471.75;4927235;29;19914;-45
2023/06/29 02:43:49;;;;;;;;;;;16.50;50.60;;;12.40;97.92;95473.88;4934997;29;19918;-44
2023/06/29 02:46:15;;;;;;;;;;;16.50;50.60;;;12.38;97.96;95468.00;4933508;29;19910;-47
2023/06/29 02:48:41;;;;;;;;;;;16.50;50.80;;;12.37;98.01;95464.53;4925363;29;20285;-45
2023/06/29 02:51:07;;;;;;;;;;;16.50;50.80;;;12.34;98.19;95469.66;4934937;29;19910;-45
2023/06/29 02:53:33;;;;;;;;;;;16.40;50.90;;;12.31;98.14;95468.31;4937218;28;19918;-44
2023/06/29 02:55:58;;;;;;;;;;;16.40;51.00;;;12.27;98.80;95473.44;4954383;28;19946;-45
2023/06/29 02:58:24;;;;;;;;;;;16.40;51.10;;;12.25;100.00;95477.44;4951127;28;20364;-45
2023/06/29 03:00:50;;;;;;;;;;;16.40;51.20;;;12.27;100.00;95476.09;4949955;28;19917;-45
2023/06/29 03:03:16;;;;;;;;;;;16.40;51.20;;;12.40;100.00;95476.56;4953920;28;19913;-45
2023/06/29 03:05:41;;;;;;;;;;;16.40;51.40;;;12.50;98.79;95479.97;4933961;28;19911;-46
2023/06/29 03:08:07;;;;;;;;;;;16.40;51.50;;;12.61;98.54;95471.84;4954160;28;19910;-45
2023/06/29 03:10:33;;;;;;;;;;;16.50;51.60;;;12.65;98.39;95473.69;4934536;29;19989;-45
2023/06/29 03:12:59;;;;;;;;;;;16.50;51.60;;;12.65;98.96;95478.22;4943315;29;19914;-45
2023/06/29 03:15:24;;;;;;;;;;;16.50;51.60;;;12.69;98.35;95482.75;4953684;29;19910;-45
2023/06/29 03:17:50;;;;;;;;;;;16.50;51.60;;;12.75;97.89;95486.16;4949472;29;19910;-45
2023/06/29 03:20:17;;;;;;;;;;;16.60;51.80;;;12.78;97.72;95471.44;4936572;29;20480;-45
2023/06/29 03:22:43;;;;;;;;;;;16.60;51.80;;;12.78;97.75;95477.59;4948745;29;19917;-45
2023/06/29 03:25:12;;;;;;;;;;;16.70;51.80;;;12.80;97.40;95474.63;4949252;29;19910;-45
2023/06/29 03:27:38;;;;;;;;;;;16.70;51.80;;;12.81;96.94;95484.25;4953755;29;19937;-46
2023/06/29 03:30:05;;;;;;;;;;;16.70;51.80;;;12.79;96.76;95481.88;4940874;29;19953;-45
2023/06/29 03:32:31;;;;;;;;;;;16.80;51.80;;;12.77;96.65;95484.00;4952765;29;19918;-45
2023/06/29 03:34:56;;;;;;;;;;;16.80;51.80;;;12.71;96.07;95483.25;4949521;29;19910;-46
2023/06/29 03:37:22;;;;;;;;;;;16.80;51.80;;;12.67;96.02;95476.88;4953512;29;19945;-45
2023/06/29 03:39:48;;;;;;;;;;;16.80;51.80;;;12.64;96.13;95471.31;4953412;29;19910;-47
2023/06/29 03:42:13;;;;;;;;;;;16.80;51.80;;;12.62;98.85;95476.13;4946090;29;20372;-46
2023/06/29 03:44:39;;;;;;;;;;;16.80;51.80;;;12.64;99.78;95472.09;4953385;29;19909;-45
2023/06/29 03:47:06;;;;;;;;;;;16.90;52.00;;;12.70;99.78;95476.31;4947818;29;19917;-45
2023/06/29 03:49:33;;;;;;;;;;;16.80;52.00;;;12.72;99.96;95482.19;4952993;28;19965;-45
2023/06/29 03:51:59;;;;;;;;;;;16.90;52.10;;;12.74;99.04;95476.56;4957176;28;19929;-45
2023/06/29 03:54:25;;;;;;;;;;;16.90;52.00;;;12.77;98.68;95481.34;4952518;28;19922;-44
2023/06/29 03:56:51;;;;;;;;;;;17.00;52.00;;;12.83;98.94;95474.88;4957224;28;19965;-47
2023/06/29 03:59:17;;;;;;;;;;;17.10;52.10;;;12.89;99.69;95475.63;4949961;28;19918;-45
2023/06/29 04:01:42;;;;;;;;;;;17.10;52.10;;;12.94;99.41;95475.56;4957162;28;20362;-44
2023/06/29 04:04:08;;;;;;;;;;;17.20;52.10;;;13.00;99.39;95473.66;4956873;28;20005;-45
2023/06/29 04:06:34;;;;;;;;;;;17.20;52.10;;;13.07;98.93;95476.81;4945990;28;20020;-45
2023/06/29 04:08:59;;;;;;;;;;;17.30;52.20;;;13.16;98.47;95469.75;4951551;28;19910;-45
2023/06/29 04:11:25;;;;;;;;;;;17.30;52.10;;;13.22;98.47;95465.94;4937828;28;19910;-46
2023/06/29 04:13:51;;;;;;;;;;;17.40;52.20;;;13.28;99.16;95464.81;4953414;28;20415;-46
2023/06/29 04:16:17;;;;;;;;;;;17.50;52.20;;;13.36;98.76;95463.44;4956696;28;19933;-51
2023/06/29 04:18:43;;;;;;;;;;;17.60;52.20;;;13.49;97.25;95468.09;4949991;28;19925;-46
2023/06/29 04:21:09;;;;;;;;;;;17.70;52.20;;;13.70;94.04;95457.16;4956646;28;20009;-48
2023/06/29 04:23:35;;;;;;;;;;;17.80;52.10;;;13.97;92.24;95454.63;4940932;28;20008;-46
2023/06/29 04:26:03;;;;;;;;;;;18.00;52.20;;;14.23;91.20;95463.13;4955500;28;19949;-47
2023/06/29 04:28:32;;;;;;;;;;;18.10;52.00;;;14.47;88.79;95463.00;4953954;28;20008;-46
2023/06/29 04:30:58;;;;;;;;;;;18.30;52.00;;;14.72;87.05;95466.41;4947011;28;20016;-45
2023/06/29 04:33:24;;;;;;;;;;;18.50;51.90;;;14.93;86.15;95464.97;4956587;28;20025;-45
2023/06/29 04:35:50;;;;;;;;;;;18.70;51.80;;;15.16;85.45;95460.53;4951945;28;19910;-45
2023/06/29 04:38:17;;;;;;;;;;;18.90;51.60;;;15.37;84.46;95457.50;4956301;28;19918;-47
2023/06/29 04:40:44;;;;;;;;;;;19.10;51.40;;;15.51;82.21;95463.66;4952229;28;19957;-45
2023/06/29 04:43:10;;;;;;;;;;;19.30;51.30;;;15.67;81.97;95456.94;4953489;28;19917;-47
2023/06/29 04:45:35;;;;;;;;;;;19.40;51.10;;;15.83;82.42;95456.63;4956533;28;19916;-49
2023/06/29 04:48:02;;;;;;;;;;;19.60;51.00;;;15.92;81.81;95463.66;4936145;28;19946;-49
2023/06/29 04:50:35;;;;;;;;;;;19.70;50.70;;;16.02;81.00;95468.03;4956224;28;19910;-51
2023/06/29 04:53:09;;;;;;;;;;;19.90;50.60;;;16.08;79.42;95474.88;4948552;28;20375;-46
2023/06/29 04:55:38;;;;;;;;;;;20.00;50.50;;;16.26;78.69;95475.81;4963981;28;19960;-48
2023/06/29 04:58:04;;;;;;;;;;;20.10;50.30;;;16.41;78.24;95472.00;4955994;28;19968;-46
2023/06/29 05:00:31;;;;;;;;;;;20.30;50.20;;;16.58;76.32;95474.03;4944379;28;19910;-47
2023/06/29 05:02:57;;;;;;;;;;;20.50;50.10;;;16.83;76.42;95478.84;4954598;28;19909;-46
2023/06/29 05:05:23;;;;;;;;;;;20.60;50.00;;;17.04;74.35;95481.78;4945757;28;20370;-48
2023/06/29 05:07:50;;;;;;;;;;;20.80;49.80;;;17.16;72.86;95467.78;4938117;28;19993;-45
2023/06/29 05:10:16;;;;;;;;;;;21.00;49.60;;;17.32;72.60;95470.88;4939286;28;19914;-46
2023/06/29 05:12:42;;;;;;;;;;;21.20;49.40;;;17.52;72.15;95473.03;4943430;28;19914;-46
2023/06/29 05:15:08;;;;;;;;;;;21.50;49.30;;;17.65;72.87;95473.22;4955788;28;19965;-47
2023/06/29 05:17:34;;;;;;;;;;;21.70;49.10;;;17.78;71.59;95475.81;4950832;28;20353;-47
2023/06/29 05:20:00;;;;;;;;;;;21.90;48.90;;;17.97;70.89;95472.84;4955531;28;19910;-48
2023/06/29 05:22:26;;;;;;;;;;;22.10;48.70;;;18.17;70.11;95466.06;4952662;28;19956;-46
2023/06/29 05:24:51;;;;;;;;;;;22.30;48.50;;;18.35;69.38;95471.50;4949756;28;19918;-46
2023/06/29 05:27:17;;;;;;;;;;;22.50;48.30;;;18.54;68.68;95468.47;4955419;28;20384;-46
2023/06/29 05:29:43;;;;;;;;;;;22.70;48.00;;;18.64;67.16;95463.53;4942875;28;19911;-46
2023/06/29 05:32:09;;;;;;;;;;;22.80;47.80;;;18.85;68.12;95474.50;4955431;28;19914;-46
2023/06/29 05:34:35;;;;;;;;;;;23.00;47.60;;;19.04;66.26;95466.06;4951464;28;19941;-49
2023/06/29 05:37:01;;;;;;;;;;;23.20;47.40;;;19.22;66.63;95471.44;4955073;28;19917;-49
2023/06/29 05:39:27;;;;;;;;;;;23.40;47.20;;;19.39;65.75;95465.97;4955236;28;19917;-48
2023/06/29 05:41:53;;;;;;;;;;;23.60;47.10;;;19.59;63.35;95476.06;4942092;28;19913;-50
2023/06/29 05:44:19;;;;;;;;;;;23.90;46.90;;;19.71;63.45;95471.91;4955362;28;19910;-48
2023/06/29 05:46:45;;;;;;;;;;;24.00;46.60;;;19.89;61.92;95468.00;4950054;28;19911;-48
2023/06/29 05:49:10;;;;;;;;;;;24.20;46.40;;;19.95;61.05;95458.56;4948707;28;20301;-52
2023/06/29 05:51:37;;;;;;;;;;;24.40;46.00;;;20.08;60.97;95460.25;4954768;28;19997;-48
2023/06/29 05:54:04;;;;;;;;;;;24.50;45.80;;;20.24;61.55;95463.16;4952313;28;19925;-48
2023/06/29 05:56:31;;;;;;;;;;;24.70;45.60;;;20.38;61.01;95462.91;4942667;28;19910;-50
2023/06/29 05:58:57;;;;;;;;;;;24.90;45.40;;;20.47;60.31;95463.66;4948812;28;20417;-51
2023/06/29 06:01:23;;;;;;;;;;;25.10;45.20;;;20.52;60.17;95459.97;4929503;28;20009;-50
2023/06/29 06:03:49;;;;;;;;;;;25.30;44.90;;;20.58;59.32;95466.75;4954754;28;19910;-47
2023/06/29 06:06:15;;;;;;;;;;;25.60;44.80;;;20.76;59.19;95462.78;4943829;28;19932;-46
2023/06/29 06:08:40;;;;;;;;;;;25.80;44.50;;;20.94;58.49;95471.53;4934159;29;19910;-46
2023/06/29 06:11:06;;;;;;;;;;;26.00;44.30;;;21.10;57.81;95468.22;4934560;29;19917;-46
2023/06/29 06:13:32;;;;;;;;;;;26.20;44.00;;;21.29;57.29;95465.78;4948912;28;20324;-46
2023/06/29 06:15:58;;;;;;;;;;;26.50;43.80;;;21.56;56.24;95461.66;4954813;28;19917;-47
2023/06/29 06:18:23;;;;;;;;;;;26.70;43.60;;;21.70;55.75;95464.81;4949133;28;19965;-48
2023/06/29 06:20:49;;;;;;;;;;;27.00;43.30;;;21.89;55.10;95460.75;4953822;28;20004;-46
2023/06/29 06:23:15;;;;;;;;;;;27.30;43.00;;;22.14;53.17;95462.31;4947026;28;19917;-49
2023/06/29 06:25:41;;;;;;;;;;;27.60;42.70;;;22.31;51.63;95463.22;4954440;28;19932;-48
2023/06/29 06:28:07;;;;;;;;;;;27.90;42.40;;;22.31;53.01;95457.78;4954498;28;20356;-50
2023/06/29 06:30:32;;;;;;;;;;;28.20;42.00;;;22.33;52.19;95455.53;4943566;28;20296;-47
2023/06/29 06:33:01;;;;;;;;;;;28.50;41.70;;;22.64;51.44;95466.53;4954066;28;20365;-51
2023/06/29 06:35:31;;;;;;;;;;;28.70;41.30;;;22.86;50.18;95467.91;4952434;28;19910;-49
2023/06/29 06:37:57;;;;;;;;;;;28.90;41.10;;;;;;4954379;28;19914;-47
2023/06/29 06:40:23;;;;;;;;;;;29.10;40.90;;;23.20;49.88;95460.31;4953162;28;19937;-54
2023/06/29 06:42:48;;;;;;;;;;;29.30;40.70;;;23.55;48.70;95463.16;4949232;28;19910;-50
2023/06/29 06:45:14;;;;;;;;;;;29.60;40.40;;;23.82;47.82;95457.19;4954182;28;19910;-47
2023/06/29 06:47:40;;;;;;;;;;;29.80;40.10;;;24.03;47.10;95463.16;4935878;28;19942;-49
2023/06/29 06:50:06;;;;;;;;;;;29.80;39.80;;;24.16;45.98;95456.47;4954217;28;19910;-52
2023/06/29 06:52:32;;;;;;;;;;;30.00;39.70;;;24.29;45.59;95457.16;4951142;28;19914;-53
2023/06/29 06:54:59;;;;;;;;;;;30.10;39.50;;;24.48;45.60;95459.13;4942793;28;19938;-52
2023/06/29 06:57:24;;;;;;;;;;;30.10;39.30;;;24.51;45.67;95455.69;4954760;28;20009;-52
2023/06/29 06:59:50;;;;;;;;;;;30.20;39.80;;;24.53;46.14;95464.28;4949510;28;20406;-50
2023/06/29 07:02:16;;;;;;;;;;;30.10;38.90;;;24.39;45.90;95455.78;4954056;28;20001;-52
2023/06/29 07:04:42;;;;;;;;;;;30.00;38.80;;;24.40;45.90;95460.09;4948882;28;19920;-53
2023/06/29 07:07:08;;;;;;;;;;;29.90;38.60;;;24.43;45.88;95454.75;4948232;28;19910;-48
2023/06/29 07:09:35;;;;;;;;;;;29.80;38.50;;;24.32;46.23;95461.88;4943934;29;19914;-51
2023/06/29 07:12:00;;;;;;;;;;;29.70;38.50;;;24.27;46.61;95466.81;4940817;29;19914;-51
2023/06/29 07:14:27;;;;;;;;;;;29.70;38.50;;;24.12;46.76;95469.19;4934732;29;19910;-52
2023/06/29 07:16:52;;;;;;;;;;;29.70;38.50;;;24.07;46.46;95469.47;4931604;29;19918;-48
2023/06/29 07:19:18;;;;;;;;;;;29.60;38.40;;;24.24;46.70;95460.13;4934681;29;19911;-52
2023/06/29 07:21:44;;;;;;;;;;;29.80;38.40;;;24.49;47.03;95459.91;4934918;29;19956;-49
2023/06/29 07:24:10;;;;;;;;;;;29.90;38.20;;;24.74;45.26;95460.44;4937935;29;20009;-47
2023/06/29 07:26:37;;;;;;;;;;;30.20;38.00;;;24.89;44.44;95454.91;4948056;28;19910;-51
2023/06/29 07:29:06;;;;;;;;;;;30.50;37.80;;;24.95;44.57;95465.53;4937572;29;19914;-53
2023/06/29 07:31:34;;;;;;;;;;;30.80;37.50;;;25.22;43.78;95458.25;4938232;29;19956;-50
2023/06/29 07:34:00;;;;;;;;;;;31.10;37.20;;;25.62;43.30;95455.84;4938618;29;19934;-50
2023/06/29 07:36:26;;;;;;;;;;;31.50;37.10;;;25.95;42.73;95454.47;4937202;29;20412;-52
2023/06/29 07:38:53;;;;;;;;;;;31.80;36.80;;;26.15;42.40;95452.41;4938493;29;19918;-49
2023/06/29 07:41:19;;;;;;;;;;;32.10;36.50;;;26.42;42.10;95449.66;4920100;29;19910;-48
2023/06/29 07:43:54;;;;;;;;;;;32.40;36.20;;;26.79;41.73;95454.44;4946418;28;19914;-47
2023/06/29 07:46:20;;;;;;;;;;;32.80;36.00;;;27.17;41.14;95456.06;4937263;29;19933;-49
2023/06/29 07:48:48;;;;;;;;;;;33.00;35.60;;;27.52;40.61;95458.41;4938029;29;19941;-49
2023/06/29 07:51:14;;;;;;;;;;;33.30;36.10;;;27.85;38.91;95448.53;4938266;29;20297;-47
2023/06/29 07:53:40;;;;;;;;;;;33.60;35.20;;;28.12;38.31;95449.13;4937044;29;19973;-50
2023/06/29 07:56:06;;;;;;;;;;;34.10;35.00;;;28.26;38.06;95451.16;4938004;29;20009;-50
2023/06/29 07:58:32;;;;;;;;;;;34.40;34.60;;;28.77;37.04;95453.03;4936999;29;20009;-51
2023/06/29 08:00:58;;;;;;;;;;;34.80;34.40;;;28.99;36.34;95442.94;4937816;29;20652;-47
2023/06/29 08:03:24;;;;;;;;;;;35.10;34.00;;;29.05;36.29;95444.13;4937910;29;19921;-50
2023/06/29 08:05:51;;;;;;;;;;;35.40;33.60;;;29.28;35.98;95449.31;4936882;29;19910;-51
2023/06/29 08:08:16;;;;;;;;;;;35.70;33.30;;;29.45;35.79;95445.78;4938141;29;19964;-53
2023/06/29 08:10:43;;;;;;;;;;;35.90;33.10;;;29.54;35.87;95439.16;4937137;28;19969;-50
2023/06/29 08:13:09;;;;;;;;;;;36.10;32.80;;;29.91;35.28;95438.81;4939807;28;20410;-50
2023/06/29 08:15:35;;;;;;;;;;;36.30;32.60;;;30.26;33.63;95429.75;4937566;29;20357;-49
2023/06/29 08:18:00;;;;;;;;;;;36.50;32.40;;;30.40;33.68;95437.19;4936689;29;19918;-52
2023/06/29 08:20:26;;;;;;;;;;;36.60;32.00;;;30.68;33.94;95430.84;4937678;28;19946;-47
2023/06/29 08:22:52;;;;;;;;;;;36.90;31.90;;;30.87;33.16;95438.63;4936624;28;19917;-48
2023/06/29 08:25:22;;;;;;;;;;;37.20;31.70;;;30.76;32.32;95437.06;4937416;29;19910;-48
2023/06/29 08:27:51;;;;;;;;;;;37.40;31.40;;;30.98;32.99;95441.31;4937452;29;19960;-48
2023/06/29 08:30:17;;;;;;;;;;;37.60;31.10;;;31.19;32.13;95436.91;4936385;29;19917;-52
2023/06/29 08:32:43;;;;;;;;;;;37.70;30.90;;;31.23;31.96;95438.44;4937543;29;20378;-50
2023/06/29 08:35:09;;;;;;;;;;;37.90;30.70;;;31.31;32.05;95434.47;4935328;29;19911;-51
2023/06/29 08:37:36;;;;;;;;;;;38.00;30.30;;;31.47;32.21;95434.00;4937317;29;19910;-51
2023/06/29 08:40:04;;;;;;;;;;;38.10;30.10;;;31.79;31.79;95424.72;4937252;29;19910;-49
2023/06/29 08:42:30;;;;;;;;;;;38.30;30.00;;;31.97;31.28;95433.63;4943491;28;19925;-49
2023/06/29 08:44:56;;;;;;;;;;;38.30;30.20;;;31.86;30.98;95421.13;4951912;28;19910;-48
2023/06/29 08:47:26;;;;;;;;;;;38.40;29.70;;;31.90;31.61;95421.88;4936353;29;19997;-48
2023/06/29 08:49:57;;;;;;;;;;;38.30;29.60;;;32.03;31.03;95414.72;4937202;29;19910;-50
2023/06/29 08:52:29;;;;;;;;;;;38.30;29.50;;;31.92;30.99;95416.75;4936681;29;20282;-48
2023/06/29 08:54:57;;;;;;;;;;;38.30;29.40;;;32.00;31.27;95418.28;4932761;29;19969;-49
2023/06/29 08:57:24;;;;;;;;;;;38.30;29.30;;;32.24;30.99;95416.44;4919666;29;19921;-52
2023/06/29 08:59:51;;;;;;;;;;;38.50;29.30;;;32.37;31.38;95414.72;4931610;29;20048;-49
2023/06/29 09:02:17;;;;;;;;;;;38.60;29.20;;;32.51;31.13;95416.59;4916944;29;19911;-48
2023/06/29 09:04:46;;;;;;;;;;;38.70;29.10;;;32.58;30.32;95413.75;4938190;28;19911;-58
2023/06/29 09:07:14;;;;;;;;;;;38.90;29.00;;;32.44;30.64;95411.19;4918798;29;19922;-49
2023/06/29 09:09:40;;;;;;;;;;;39.10;28.90;;;32.37;30.71;95419.47;4936480;29;20468;-53
2023/06/29 09:12:06;;;;;;;;;;;39.10;28.70;;;32.66;30.33;95419.97;4936563;28;20060;-50
2023/06/29 09:14:35;;;;;;;;;;;39.20;28.60;;;32.74;30.21;95418.69;4934452;29;20293;-52
2023/06/29 09:17:11;;;;;;;;;;;39.40;28.50;;;32.62;30.94;95419.22;4934207;29;19918;-49
2023/06/29 09:19:37;;;;;;;;;;;39.60;28.30;;;32.73;30.19;95417.13;4935359;29;19919;-50
2023/06/29 09:22:03;;;;;;;;;;;39.60;28.10;;;32.84;30.14;95417.75;4933687;29;19918;-49
2023/06/29 09:24:31;;;;;;;;;;;39.60;27.90;;;32.93;30.05;95406.22;4930060;29;20265;-50
2023/06/29 09:26:59;;;;;;;;;;;39.70;27.80;;;32.79;30.29;95407.22;4934782;29;20052;-48
2023/06/29 09:29:25;;;;;;;;;;;39.80;27.70;;;32.95;29.31;95406.59;4937234;28;20309;-49
2023/06/29 09:31:58;;;;;;;;;;;39.90;27.60;;;33.37;28.86;95405.25;4949637;28;19911;-50
2023/06/29 09:34:27;;;;;;;;;;;40.00;27.50;;;33.80;28.02;95404.59;4936032;28;19956;-49
2023/06/29 09:36:54;;;;;;;;;;;40.10;27.50;;;33.99;27.66;95394.81;4933418;29;19933;-47
2023/06/29 09:39:21;;;;;;;;;;;40.20;27.40;;;34.23;27.72;95401.13;4934128;29;19918;-50
2023/06/29 09:41:54;;;;;;;;;;;40.20;27.20;;;34.18;26.40;95398.06;4933974;28;19918;-54
2023/06/29 09:44:24;;;;;;;;;;;40.20;27.20;;;33.81;27.05;95395.09;4934716;29;20471;-51
2023/06/29 09:47:03;;;;;;;;;;;40.10;27.00;;;32.84;27.82;95395.69;4934192;29;19910;-50
2023/06/29 09:49:30;;;;;;;;;;;39.80;26.80;;;33.21;28.10;95383.00;4933515;29;19910;-50
2023/06/29 09:52:04;;;;;;;;;;;39.70;26.80;;;33.14;27.78;95389.41;4935204;29;20473;-50
2023/06/29 09:54:37;;;;;;;;;;;39.80;26.80;;;33.27;28.19;95386.09;4931778;29;19919;-49
2023/06/29 09:57:04;;;;;;;;;;;39.80;26.70;;;33.42;28.28;95389.44;4934329;29;20378;-52
2023/06/29 09:59:31;;;;;;;;;;;39.80;26.60;;;33.47;27.19;95386.97;4933279;29;19938;-49
2023/06/29 10:01:57;;;;;;;;;;;39.90;27.00;;;33.71;26.60;95387.78;4935561;29;19914;-50
2023/06/29 10:04:26;;;;;;;;;;;40.00;26.40;;;33.79;26.59;95386.47;4934027;29;20325;-50
2023/06/29 10:07:14;;;;;;;;;;;40.10;26.30;;;34.07;26.49;95387.22;4933633;29;19910;-50
2023/06/29 10:09:45;;;;;;;;;;;40.20;26.20;;;34.54;26.57;95381.63;4934627;29;20114;-49
2023/06/29 10:12:14;;;;;;;;;;;40.50;26.30;;;34.71;26.05;95386.00;4934203;29;19914;-48
2023/06/29 10:14:43;;;;;;;;;;;40.80;26.30;;;35.02;24.93;95379.44;4917454;29;19933;-50
2023/06/29 10:17:22;;;;;;;;;;;41.10;26.20;;;34.75;25.98;95380.38;4933299;29;20005;-51
2023/06/29 10:19:50;;;;;;;;;;;41.40;25.90;;;35.27;25.17;95384.44;4914656;29;20374;-48
2023/06/29 10:22:20;;;;;;;;;;;41.70;25.80;;;35.57;24.79;95389.69;4934410;29;20414;-51
2023/06/29 10:25:17;;;;;;;;;;;41.90;25.60;;;35.72;25.09;95386.56;4934479;29;19922;-48
2023/06/29 10:27:44;;;;;;;;;;;42.20;25.50;;;35.64;24.46;95385.97;4940551;28;20266;-49
2023/06/29 10:30:10;;;;;;;;;;;42.40;25.40;;;35.73;24.50;95386.16;4938360;28;19914;-51
2023/06/29 10:32:39;;;;;;;;;;;42.50;25.20;;;35.58;23.67;95382.94;4935154;29;19922;-49
2023/06/29 10:35:11;;;;;;;;;;;42.70;25.10;;;35.14;25.47;95385.13;4934140;29;20361;-48
2023/06/29 10:37:50;;;;;;;;;;;42.70;24.90;;;35.42;24.70;95383.69;4935078;29;19914;-52
2023/06/29 10:40:19;;;;;;;;;;;42.60;24.80;;;35.71;24.43;95383.03;4935105;29;19914;-50
2023/06/29 10:42:53;;;;;;;;;;;42.60;24.70;;;35.78;25.07;95384.84;4933925;29;19914;-50
2023/06/29 10:45:20;;;;;;;;;;;42.80;24.70;;;35.33;25.02;95377.97;4935360;29;19965;-49
2023/06/29 10:48:00;;;;;;;;;;;42.80;24.60;;;35.67;25.41;95374.81;4934069;29;19914;-51
2023/06/29 10:50:39;;;;;;;;;;;42.80;24.50;;;35.88;24.74;95378.22;4935201;29;20292;-48
2023/06/29 10:53:17;;;;;;;;;;;42.90;24.40;;;35.75;24.42;95377.38;4902203;29;19918;-52
2023/06/29 10:56:01;;;;;;;;;;;42.90;24.20;;;35.75;24.06;95366.31;4991484;23;19968;-49
2023/06/29 10:58:41;;;;;;;;;;;42.90;24.10;;;35.61;24.55;95367.44;4979960;28;19941;-51
2023/06/29 11:01:06;;;;;;;;;;;43.00;24.10;;;35.65;25.03;95368.91;4982968;28;20352;-50
2023/06/29 11:03:34;;;;;;;;;;;43.10;24.00;;;35.66;23.78;95364.16;4976789;28;19921;-54
2023/06/29 11:06:01;;;;;;;;;;;43.20;24.00;;;35.26;25.44;95357.97;4954891;28;19949;-49
2023/06/29 11:08:28;;;;;;;;;;;43.20;23.90;;;35.76;25.04;95367.84;4970752;28;20249;-48
2023/06/29 11:10:54;;;;;;;;;;;43.20;23.90;;;36.18;24.19;95366.00;4966776;28;19910;-46
2023/06/29 11:13:21;;;;;;;;;;;43.30;23.80;;;36.16;23.80;95356.56;4956206;28;19913;-47
2023/06/29 11:15:55;;;;;;;;;;;43.60;23.80;;;36.35;23.57;95359.22;4964656;28;19910;-48
2023/06/29 11:18:22;;;;;;;;;;;43.80;23.80;;;36.44;23.70;95357.78;4961207;28;19918;-45